Tiempo atmosférico en la estación meteorológica de San Sebastián Aeropuerto, Gipuzkoa (4 m.)



Fecha
DESCASC
Temp. máxima en grados centígrados (hora)
DESCASC
Temp. mínima en grados centígrados (hora)
DESCASC
Temp. media en grados centígrados
DESCASC
Racha de viento máxima en m/sg (hora)
DESCASC
Velocidad máxima media en intervalos de 10 minutos(hora)
DESCASC
Precipitaciones diarias en mm
DESCASC
Precipitaciones de 00:00 a 06:00 en mm
DESCASC
Precipitaciones de 06:00 a 12:00 en mm
DESCASC
Precipitaciones de 12:00 a 18:00 en mm
DESCASC
Precipitaciones de 18:00 a 24:00 en mm
DESCASC
22-01-2020 11.5 (15:20) 6.1 (00:00) 8.8 4.72 (04:10) 3.61 (04:50) 0 0 0 0 0
21-01-2020 6.1 (23:10) 0 (03:40) 3 6.11 (10:00) 3.61 (21:20) 0 0 0 0 0
20-01-2020 6.5 (20:00) 0.6 (06:00) 3.6 6.11 (00:10) 4.17 (11:10) 0 0 0 0 0
19-01-2020 10.3 (16:00) 5 (00:00) 7.7 16.94 (20:10) 12.78 (20:20) 5.4 5.4 0 0 0
18-01-2020 16.3 (15:50) 5.5 (00:00) 10.9 15.28 (19:00) 10.28 (19:10) 7.2 0 0 0 7.2
17-01-2020 17.2 (01:50) 7.2 (00:00) 12.2 15.28 (02:00) 9.17 (02:00) 19.6 0 13.9 3.2 2.5
16-01-2020 19 (13:40) 5.9 (00:00) 12.5 11.39 (08:50) 8.06 (08:40) 0 0 0 0 0
15-01-2020 17 (12:30) 6.7 (00:00) 11.8 15 (08:10) 10.28 (11:00) 0 0 0 0 0
14-01-2020 18.9 (13:40) 10.3 (00:00) 14.6 13.89 (20:30) 10.28 (20:30) 0 0 0 0 0
13-01-2020 16.7 (16:30) 2.1 (00:00) 9.4 8.33 (18:50) 6.11 (19:10) 0 0 0 0 0
12-01-2020 13.8 (15:20) 3 (00:00) 8.4 4.72 (03:50) 3.89 (05:30) 0 0 0 0 0
11-01-2020 12.3 (16:00) 3.8 (00:00) 8.1 4.72 (17:30) 3.33 (17:20) 0 0 0 0 0
10-01-2020 13.5 (12:10) 5.9 (00:00) 9.7 14.44 (01:50) 8.61 (01:50) 12.3 8.4 1.4 2.4 0.1
09-01-2020 19.5 (13:00) 5.3 (00:00) 12.4 22.22 (17:40) 11.11 (17:40) 3.6 0 0 0 3.6
08-01-2020 14.9 (13:00) 5.9 (00:00) 10.4 4.72 (07:20) 3.33 (07:20) 0 0 0 0 0
07-01-2020 14.1 (14:30) 6.7 (00:00) 10.4 5 (01:40) 4.17 (01:50) 0 0 0 0 0
06-01-2020 13.9 (14:00) 1.9 (00:00) 7.9 7.78 (17:30) 4.72 (14:20) 0 0 0 0 0
05-01-2020 6.7 (13:30) 1.9 (00:00) 4.3 4.72 (14:00) 3.61 (14:10) 0 0 0 0 0
04-01-2020 12.5 (13:50) 5.6 (00:00) 9 5.83 (18:40) 3.61 (18:50) 3.1 0.9 2.2 0 0
03-01-2020 11.8 (16:30) 4.9 (00:00) 8.4 5.83 (16:00) 4.17 (16:00) 0.8 0 0 0 0.8
02-01-2020 14.5 (13:30) 1.7 (00:00) 8.1 4.17 (12:10) 3.06 (12:10) 0 0 0 0 0
01-01-2020 14.2 (16:10) 4.5 (00:00) 9.3 5 (12:20) 3.61 (17:30) 0 0 0 0 0
31-12-2019 11.5 (16:40) 3.5 (00:00) 7.5 6.11 (11:00) 4.72 (11:30) 0 0 0 0 0
30-12-2019 14.8 (14:00) 0.9 (00:00) 7.9 5 (21:50) 4.44 (21:50) 0 0 0 0 0
29-12-2019 11.8 (14:50) 1.1 (00:00) 6.5 -- (--) -- (--) 0 0 0 0 0
28-12-2019 11.1 (16:00) 2.9 (00:00) 7 4.72 (13:10) 3.89 (13:10) 0 0 0 0 0
27-12-2019 12.7 (14:10) 3.5 (00:00) 8.1 5.83 (08:40) 3.61 (15:50) 0 0 0 0 0
26-12-2019 18.2 (03:50) 6.2 (00:00) 12.2 18.89 (04:10) 10 (04:00) 0.2 0 0.2 0 0
25-12-2019 17.5 (16:30) 5.8 (00:00) 11.7 3.61 (19:30) 3.06 (23:20) 0 0 0 0 0

Gráficas

Temp. máximas Temp. mínimas Temp. medias Precipitaciones Rachas de viento máximas Velocidades máximas media en intervalos de 10 minutos

Datos horarios

Fecha y hora oficial Temperatura (ºC) Velocidad del viento (km/h) Dirección del viento Racha (km/h) Dirección de racha Precipitación (mm) Presión (hPa) Tendencia (hPa) Humedad (%)
2020-01-23 23:00:00 10.4 7 Sur 15 Sur 0 1019.2 0.7 70
2020-01-23 22:00:00 10.9 9 Sudoeste 17 Sudoeste 0 1018.9 0.4 67
2020-01-23 21:00:00 9.7 8 Sudoeste 11 Sudoeste 0 1018.7 0.4 80
2020-01-23 20:00:00 9.8 6 Sudoeste 13 Sur 0 1018.5 0.5 84
2020-01-23 19:00:00 10.1 0 Calma 21 Este 0 1018.5 1 92
2020-01-23 18:00:00 10.7 5 Sudoeste 9 Norte 0 1018.3 0.9 89
2020-01-23 17:00:00 11 5 Norte 11 Nordeste 0 1018 -0.1 86
2020-01-23 16:00:00 11.4 9 Nordeste 11 Nordeste 0 1017.5 -1.5 87
2020-01-23 15:00:00 11.2 0 Calma 8 Oeste 0 1017.4 -2.2 87
2020-01-23 14:00:00 10.3 3 Sudeste 9 Sudeste 0 1018.1 -1.7 92
2020-01-23 13:00:00 9.3 4 Sudoeste 8 Sudoeste 0 1019 -0.1 96
2020-01-23 12:00:00 9 0 Calma 4 Sur 0.1 1019.6 0.5 98
2020-01-23 11:00:00 8.3 0 Calma 11 Sur 0.2 1019.8 0.3 98
2020-01-23 10:00:00 7.8 7 Sur 11 Sur 0.4 1019.1 0 98
2020-01-23 09:00:00 7.1 7 Sudoeste 11 Sur 0.7 1019.1 -0.1 98
2020-01-23 08:00:00 6.4 10 Sudoeste 11 Sudoeste 0.7 1019.5 -0.2 97
2020-01-23 07:00:00 6.1 5 Sudoeste 9 Sudoeste 0 1019.1 -0.7 97
2020-01-23 06:00:00 5.8 7 Sudoeste 9 Sudoeste 0 1019.2 -0.4 97
2020-01-23 05:00:00 5.8 4 Sur 9 Sudoeste 0 1019.7 0 97
2020-01-23 04:00:00 5.9 6 Sudoeste 8 Sudoeste 0 1019.8 -0.1 96
2020-01-23 03:00:00 6.4 4 Sudoeste 8 Oeste 0 1019.6 -0.6 95
2020-01-23 02:00:00 7.8 0 Calma -- -- -- 1019.7 -0.5 94
2020-01-23 01:00:00 8.3 4 Sur 11 Sur 0 1019.9 -0.3 93
2020-01-23 00:00:00 8.4 8 Sur 11 Sur 0 1020.2 -0.5 92
2020-01-22 23:00:00 8.2 5 Sur 11 Sur 0 1020.2 -0.6 92
2020-01-22 22:00:00 7.9 5 Sudoeste 9 Sudoeste 0 1020.2 -0.6 91
2020-01-22 21:00:00 7.9 6 Sur -- -- 0 1020.7 0 91
2020-01-22 20:00:00 8.5 4 Sur 8 Sur 0 1020.8 -0.6 88
2020-01-22 19:00:00 8.8 2 Nordeste 4 Nordeste 0 1020.8 -0.8 85
2020-01-22 18:00:00 9.9 4 Oeste 9 Oeste 0 1020.7 -1.2 80
2020-01-22 17:00:00 10.4 3 Norte 11 Nordeste 0 1021.4 -0.9 78
2020-01-22 16:00:00 10.6 8 Norte 13 Nordeste 0 1021.6 -1.6 78
2020-01-22 15:00:00 10.9 10 Norte 15 Nordeste 0 1021.9 -2 78
2020-01-22 14:00:00 9.7 6 Sudoeste 9 Sudoeste 0 1022.3 -1.7 79
2020-01-22 13:00:00 8.4 0 Calma 9 Sudoeste 0 1023.2 -0.8 87
2020-01-22 12:00:00 8.2 6 Sur 13 Sur 0 1023.9 0.3 82
2020-01-22 11:00:00 7.8 9 Sur 13 Sudoeste 0 1024 0.4 83
2020-01-22 10:00:00 7.3 8 Sur 15 Sur 0 1024 0.5 86
2020-01-22 09:00:00 7.2 10 Sur 13 Sur 0 1023.6 0 84
2020-01-22 08:00:00 7.2 8 Sudoeste 9 Sudoeste 0 1023.6 -0.6 84
2020-01-22 07:00:00 7.4 8 Sudoeste 11 Sudoeste 0 1023.5 -1.4 84
2020-01-22 06:00:00 7.5 0 Calma 15 Nordeste 0 1023.6 -1.5 82
2020-01-22 05:00:00 7.9 13 Nordeste 17 Nordeste 0 1024.2 -1.1 81
2020-01-22 04:00:00 6.4 8 Nordeste 13 Nordeste 0 1024.9 -1.2 88
2020-01-22 03:00:00 6.1 0 Calma 8 Sudoeste 0 1025.1 -1.5 88
2020-01-22 02:00:00 6.1 5 Sudoeste -- -- -- 1025.3 -1.4 87
2020-01-22 01:00:00 6.2 0 Calma 9 Sur 0 1026.1 -0.9 85
2020-01-22 00:00:00 6.1 6 Sur 13 Sur 0 1026.6 -0.8 81
2020-01-21 23:00:00 6 9 Sudoeste 13 Sur 0 1026.7 -0.9 80
2020-01-21 22:00:00 5.9 11 Sudoeste 17 Sudoeste 0 1027 -0.9 79
2020-01-21 21:00:00 5.8 12 Sudoeste 18 Sudoeste 0 1027.4 -0.4 79
2020-01-21 20:00:00 5.7 9 Sudoeste 15 Sudoeste 0 1027.6 -0.5 79
2020-01-21 19:00:00 5.7 9 Sudoeste 15 Sudoeste 0 1027.9 -0.6 79
2020-01-21 18:00:00 5.7 8 Sudoeste 11 Sudoeste 0 1027.8 -1 79
2020-01-21 17:00:00 5.9 3 Oeste 5 Oeste 0 1028.1 -1.4 78
2020-01-21 16:00:00 5.7 3 Sudoeste 11 Sudeste 0 1028.5 -1.8 75
2020-01-21 15:00:00 5.2 4 Sudeste 9 Sudeste 0 1028.8 -2.3 77
2020-01-21 14:00:00 4.9 6 Este 9 Sudeste 0 1029.5 -1.8 77
2020-01-21 13:00:00 4.6 5 Este 13 Este 0 1030.3 -1.3 78
2020-01-21 12:00:00 4.2 6 Este 13 Este 0 1031.1 -0.6 79
2020-01-21 11:00:00 3.7 4 Este 13 Sudeste 0 1031.3 -0.2 80
2020-01-21 10:00:00 3.8 8 Este 22 Sudeste 0 1031.6 0.1 78
2020-01-21 09:00:00 2.5 7 Nordeste 9 Este 0 1031.7 0.1 84
2020-01-21 08:00:00 2.5 2 Este 11 Este 0 1031.5 -0.4 81
2020-01-21 07:00:00 2 10 Este 13 Este 0 1031.5 -0.9 91
2020-01-21 06:00:00 0.5 4 Oeste 5 Sudoeste 0 1031.6 -1.4 92
2020-01-21 05:00:00 0.2 3 Sudoeste 9 Sudoeste 0 1031.9 -1.5 91
2020-01-21 04:00:00 0.2 6 Sur 9 Sur 0 1032.4 -1.7 91
2020-01-21 03:00:00 0.2 5 Sudoeste 8 Sudoeste 0 1033 -1.3 89
2020-01-21 02:00:00 0.7 6 Sudoeste -- -- -- 1033.4 -0.5 88
2020-01-21 01:00:00 1.3 5 Sudoeste 8 Oeste 0 1034.1 0.2 84
2020-01-21 00:00:00 1.6 4 Sudoeste 8 Sudoeste 0 1034.3 0.1 84
2020-01-20 23:00:00 2.3 4 Sudoeste 5 Sudoeste 0 1033.9 -0.3 80
2020-01-20 22:00:00 3.7 4 Sudoeste 8 Sur 0 1033.9 0 76
2020-01-20 21:00:00 5.6 8 Este 18 Este 0 1034.2 0.5 61
2020-01-20 20:00:00 6.5 15 Este 22 Este 0 1034.2 0.4 59
2020-01-20 19:00:00 5.8 2 Sur 9 Sur 0 1033.9 0.1 67
2020-01-20 18:00:00 5.6 6 Sudoeste 11 Sudoeste 0 1033.7 -0.3 66
2020-01-20 17:00:00 6.1 7 Sur 9 Sur 0 1033.8 -0.7 62
2020-01-20 16:00:00 5.6 6 Este 17 Nordeste 0 1033.8 -1.3 64
2020-01-20 15:00:00 5.2 9 Nordeste 17 Nordeste 0 1034 -1.3 68
2020-01-20 14:00:00 4.8 9 Nordeste 17 Este 0 1034.5 -1.5 66
2020-01-20 13:00:00 4.6 12 Este 18 Este 0 1035.1 -0.7 67
2020-01-20 12:00:00 4 10 Este 21 Nordeste 0 1035.3 0 69
2020-01-20 11:00:00 3.2 15 Nordeste 21 Nordeste 0 1036 1 74
2020-01-20 10:00:00 2.8 9 Nordeste 15 Nordeste 0 1035.8 0.8 75
2020-01-20 09:00:00 1.5 6 Norte 11 Sudeste 0 1035.3 0.3 80
2020-01-20 08:00:00 1.8 8 Este 22 Este 0 1035 -0.2 79
2020-01-20 07:00:00 1.8 4 Este 11 Este 0 1035 -0.4 81
2020-01-20 06:00:00 0.7 0 Calma 8 Nordeste 0 1035 -1 86
2020-01-20 05:00:00 1.1 3 Este 9 Este 0 1035.2 -1.3 85
2020-01-20 04:00:00 2.8 6 Este 13 Este 0 1035.4 -1.4 75
2020-01-20 03:00:00 2.8 4 Sur 11 Este 0 1036 -0.6 75
2020-01-20 02:00:00 4 11 Este -- -- -- 1036.5 0.3 70
2020-01-20 01:00:00 4.4 14 Este 22 Este 0 1036.8 0.6 67
2020-01-20 00:00:00 5.2 19 Este 48 Nordeste 0 1036.6 0.9 64
2020-01-19 23:00:00 6.1 35 Nordeste 55 Nordeste 0 1036.2 1.3 65
2020-01-19 22:00:00 6.8 42 Nordeste 52 Nordeste 0 1036.2 2.4 63
2020-01-19 21:00:00 7.2 36 Nordeste 61 Nordeste 0 1035.7 2.8 61
2020-01-19 20:00:00 8.2 42 Nordeste 55 Nordeste 0 1034.9 2.3 58
2020-01-19 19:00:00 8.9 39 Nordeste 55 Nordeste 0 1033.8 1.7 53
2020-01-19 18:00:00 9.2 36 Nordeste 48 Nordeste 0 1032.9 0.7 47
2020-01-19 17:00:00 9.8 29 Nordeste 48 Nordeste 0 1032.6 0 47
2020-01-19 16:00:00 10.2 26 Nordeste 39 Nordeste 0 1032.1 -0.5 46
2020-01-19 15:00:00 9.5 25 Nordeste 33 Nordeste 0 1032.2 -0.5 53
2020-01-19 14:00:00 9.5 17 Nordeste 30 Nordeste 0 1032.6 0.8 58
2020-01-19 13:00:00 8.7 19 Nordeste 32 Nordeste 0 1032.6 2 60
2020-01-19 12:00:00 8.2 21 Nordeste 30 Nordeste 0 1032.7 3.4 64
2020-01-19 11:00:00 7.7 16 Nordeste 32 Nordeste 0 1031.8 4.1 68
2020-01-19 10:00:00 7.1 16 Este 35 Nordeste 0 1030.6 3.8 74
2020-01-19 09:00:00 7 24 Nordeste 35 Nordeste 0 1029.3 3.7 77
2020-01-19 08:00:00 6.9 7 Nordeste 18 Este 0 1027.7 3.3 83
2020-01-19 07:00:00 7.4 13 Este 21 Este 0 1026.8 3.4 84
2020-01-19 06:00:00 7.2 12 Nordeste 22 Este 0 1025.6 3.4 89
2020-01-19 05:00:00 7.4 18 Nordeste 32 Nordeste 0.3 1024.4 2.8 90
2020-01-19 04:00:00 8.2 22 Nordeste 28 Nordeste 1.3 1023.4 2.2 95
2020-01-19 03:00:00 8.6 11 Noroeste 18 Oeste 1.7 1022.2 1.8 95
2020-01-19 02:00:00 8.6 10 Sur -- -- -- 1021.6 1.2 94
2020-01-19 01:00:00 8.6 12 Sudoeste 21 Sudoeste 1.3 1021.2 0.9 92
2020-01-19 00:00:00 8.6 14 Sur 30 Sudoeste 1.8 1020.4 0.2 91
2020-01-18 23:00:00 9 21 Sudoeste 30 Sudoeste 1 1020.4 0.3 88
2020-01-18 22:00:00 9.3 22 Sudoeste 33 Sudoeste 0 1020.3 1.3 88
2020-01-18 21:00:00 9.5 20 Sudoeste 30 Sudoeste 1.4 1020.2 3.7 89
2020-01-18 20:00:00 10.5 19 Sudoeste 54 Oeste 2.5 1020.1 3.7 86
2020-01-18 19:00:00 13.8 28 Oeste 55 Oeste 0.5 1019 2.1 63
2020-01-18 18:00:00 14 17 Sudeste 26 Sudeste 0 1016.5 -0.6 56
2020-01-18 17:00:00 15.6 17 Sur 22 Sur 0 1016.4 -2.5 50
2020-01-18 16:00:00 15.9 11 Sudeste 17 Sudeste 0 1016.9 -4.2 46
2020-01-18 15:00:00 14.5 13 Sudeste 42 Sur 0 1017.1 -5.9 47
2020-01-18 14:00:00 14.8 22 Sur 37 Sur 0 1018.9 -5.2 45
2020-01-18 13:00:00 14.7 24 Sur 32 Sur 0 1021.1 -3.8 45
2020-01-18 12:00:00 13.6 20 Sur 28 Sur 0 1023 -2.9 49
2020-01-18 11:00:00 10.5 13 Sur 24 Sur 0 1024.1 -2.6 71
2020-01-18 10:00:00 6.4 6 Sur 13 Noroeste 0 1024.9 -2.5 94
2020-01-18 09:00:00 6.5 6 Oeste 15 Sudoeste 0 1025.9 -2.6 96
2020-01-18 08:00:00 6.2 10 Sudoeste 15 Sudeste 0 1026.7 -2.1 95
2020-01-18 07:00:00 6.5 6 Sudoeste 13 Sur 0 1027.4 -1.7 95
2020-01-18 06:00:00 6.5 0 Calma 13 Sudoeste 0 1028.5 -1.9 96
2020-01-18 05:00:00 6.3 9 Sur 22 Sudeste 0 1028.8 -2.1 97
2020-01-18 04:00:00 6.1 8 Sur 15 Sur 0 1029.1 -2 97
2020-01-18 03:00:00 6 4 Sudoeste 9 Sur 0 1030.4 -1.5 97
2020-01-18 02:00:00 5.8 7 Sur -- -- -- 1030.9 -1.5 96
2020-01-18 01:00:00 6.8 5 Sudoeste 15 Sudeste 0 1031.1 -1.3 94
2020-01-18 00:00:00 7.3 9 Sudeste 13 Sur 0 1031.9 -0.9 95
2020-01-17 23:00:00 7.8 9 Sudeste 13 Sur 0 1032.4 -0.2 94
2020-01-17 22:00:00 8.7 10 Sudoeste 18 Sudoeste 0.1 1032.4 0.3 90
2020-01-17 21:00:00 9 10 Oeste 18 Noroeste 1.1 1032.8 1.5 89
2020-01-17 20:00:00 9.5 10 Sudoeste 21 Sur 0 1032.6 2 83
2020-01-17 19:00:00 10 17 Sudoeste 37 Noroeste 1.3 1032.1 2.1 78
2020-01-17 18:00:00 11.3 8 Oeste 21 Oeste 0 1031.3 2.1 73
2020-01-17 17:00:00 11.2 12 Oeste 42 Oeste 0 1030.6 1.3 76
2020-01-17 16:00:00 10.6 17 Oeste 45 Oeste 1.7 1030 1.1 79
2020-01-17 15:00:00 12.4 27 Sudoeste 50 Sudoeste 0 1029.2 0.1 65
2020-01-17 14:00:00 11.9 22 Sudoeste 35 Sudoeste 0.3 1029.3 1.5 74
2020-01-17 13:00:00 11 10 Sudoeste 32 Oeste 1.2 1028.9 1.7 88
2020-01-17 12:00:00 10.5 10 Oeste 26 Sudoeste 1.3 1029.1 2.6 88
2020-01-17 11:00:00 10.8 17 Sudoeste 33 Sudoeste 0.7 1027.8 3 87
2020-01-17 10:00:00 9.9 23 Oeste 41 Oeste 2.8 1027.2 4.5 89
2020-01-17 09:00:00 10.4 20 Sudoeste 39 Oeste 6.9 1026.5 4.5 89
2020-01-17 08:00:00 11.1 21 Noroeste 39 Noroeste 2.1 1024.8 3 87
2020-01-17 07:00:00 14 10 Sur 18 Oeste 0.1 1022.7 1.7 62
2020-01-17 06:00:00 14.4 11 Oeste 18 Sudoeste 0 1022 1.6 50
2020-01-17 05:00:00 15.4 15 Sudoeste 26 Sudoeste 0 1021.8 2 46
2020-01-17 04:00:00 15.8 15 Sudoeste 46 Sudoeste 0 1021 1.1 44
2020-01-17 03:00:00 16.7 28 Sudoeste 45 Sur 0 1020.4 0.7 43
2020-01-17 02:00:00 17 33 Sudoeste -- -- -- 1019.8 -0.2 42
2020-01-17 01:00:00 16.6 24 Sudoeste 35 Sudoeste 0 1019.9 0.3 42
2020-01-17 00:00:00 16.8 22 Sur 33 Sur 0 1019.7 0.7 42
2020-01-16 23:00:00 17.1 10 Sur 30 Sudoeste 0 1020 1.4 42
2020-01-16 22:00:00 16.9 8 Sur 22 Sudoeste 0 1019.6 1 49
2020-01-16 21:00:00 16.7 13 Sur 24 Sur 0 1019 0.2 52
2020-01-16 20:00:00 17.5 18 Sur 39 Sur 0 1018.6 -0.1 50
2020-01-16 19:00:00 17.6 27 Sur 39 Sur 0 1018.6 0 50
2020-01-16 18:00:00 17.3 10 Sur 26 Sur 0 1018.8 -0.5 51
2020-01-16 17:00:00 18.1 26 Sur 37 Sur 0 1018.7 -1.4 48
2020-01-16 16:00:00 18.1 22 Sur 35 Sur 0 1018.6 -2.5 49
2020-01-16 15:00:00 18.3 19 Sur 32 Sudeste 0 1019.3 -2.1 48
2020-01-16 14:00:00 18.8 20 Sudeste 28 Sur 0 1020.1 -1.2 46
2020-01-16 13:00:00 18.2 14 Sur 28 Sudeste 0 1021.1 -0.1 47
2020-01-16 12:00:00 17.8 25 Sur 33 Sur 0 1021.4 0.7 46
2020-01-16 11:00:00 16.8 19 Sur 24 Sur 0 1021.3 0.6 50
2020-01-16 10:00:00 15.8 16 Sur 35 Sur 0 1021.2 0.4 53
2020-01-16 09:00:00 15.1 26 Sur 41 Sur 0 1020.7 -0.1 52
2020-01-16 08:00:00 15 25 Sur 35 Sudoeste 0 1020.7 -0.4 53
2020-01-16 07:00:00 14.6 16 Sur 30 Sur 0 1020.8 -0.7 56
2020-01-16 06:00:00 14 20 Sur 30 Sudeste 0 1020.8 -0.9 56
2020-01-16 05:00:00 13.4 22 Sur 32 Sur 0 1021.1 -0.9 59
2020-01-16 04:00:00 12.5 16 Sur 24 Sur 0 1021.5 -0.8 61
2020-01-16 03:00:00 6.5 9 Sur 13 Este 0 1021.7 -1 88
2020-01-16 02:00:00 6 4 Sudoeste 11 Sur 0 1022 -1 90
2020-01-16 01:00:00 6.7 8 Sur 11 Sur 0 1022.3 -0.8 90
2020-01-16 00:00:00 6.8 8 Sudoeste 11 Sudoeste 0 1022.7 -0.9 92
2020-01-15 23:00:00 7.1 6 Sudoeste 11 Sur 0 1023 -0.5 92
2020-01-15 22:00:00 7.6 8 Sur 9 Sur 0 1023.1 0.2 91
2020-01-15 21:00:00 9.5 7 Sur -- -- 0 1023.6 1.6 87
2020-01-15 20:00:00 11.5 7 Sudoeste 11 Sur 0 1023.5 2.5 77
2020-01-15 19:00:00 13.3 3 Sudoeste 9 Noroeste 0 1022.9 3 77
2020-01-15 18:00:00 14.5 6 Noroeste 15 Nordeste 0 1022 2.3 69
2020-01-15 17:00:00 15.3 5 Norte 17 Norte 0 1021 2.2 61
2020-01-15 16:00:00 15.9 15 Sudeste 22 Sudeste 0 1019.9 1.1 47
2020-01-15 15:00:00 16.2 9 Sur 22 Sur 0 1019.7 1.4 46
2020-01-15 14:00:00 16.8 6 Oeste 28 Sudoeste 0 1018.8 1.7 45
2020-01-15 13:00:00 16.9 18 Sudoeste 42 Sudoeste 0 1018.8 3 43
2020-01-15 12:00:00 16.5 30 Sur 41 Sur 0 1018.3 2.7 44
2020-01-15 11:00:00 16.1 37 Sur 46 Sur 0 1017.1 2 43
2020-01-15 10:00:00 15.5 27 Sur 39 Sur 0 1015.8 1.1 42
2020-01-15 09:00:00 14.6 23 Sur 54 Sur 0 1015.6 1.5 43
2020-01-15 08:00:00 14.7 36 Sur 50 Sudoeste 0 1015.1 0.8 44
2020-01-15 07:00:00 14 27 Sur 39 Sur 0 1014.7 0.2 48
2020-01-15 06:00:00 13.1 27 Sudeste 48 Sur 0 1014.1 -0.5 48
2020-01-15 05:00:00 14.3 18 Sur 30 Sur 0 1014.3 -1 46
2020-01-15 04:00:00 12.4 19 Sudeste 42 Sur 0 1014.5 -1.1 50
2020-01-15 03:00:00 12.9 31 Sur 48 Sur 0 1014.6 -1.6 47
2020-01-15 02:00:00 12.8 24 Sur 32 Sur 0 1015.3 -0.4 47
2020-01-15 01:00:00 12.8 23 Sur 30 Sur 0 1015.6 -0.1 49
2020-01-15 00:00:00 12.2 12 Sudeste 22 Sudeste 0 1016.2 0.5 49
2020-01-14 23:00:00 12.4 13 Sudeste 28 Sur 0 1015.7 0.5 47
2020-01-14 22:00:00 13.1 16 Sur 37 Sur 0 1015.7 0.9 43
2020-01-14 21:00:00 12.9 27 Sur 50 Sudoeste 0 1015.7 1.2 42
2020-01-14 20:00:00 13.5 26 Sudoeste 45 Sudoeste 0 1015.2 1.2 40
2020-01-14 19:00:00 14 30 Sur 41 Sur 0 1014.8 1 39
2020-01-14 18:00:00 14.9 22 Sur 37 Sur 0 1014.5 0.8 35
2020-01-14 17:00:00 16.6 5 Sudeste 30 Sudoeste 0 1014 0.3 32
2020-01-14 16:00:00 17.8 20 Sur 41 Sudoeste 0 1013.8 -0.5 28
2020-01-14 15:00:00 17.7 25 Sur 45 Sur 0 1013.7 -1 32
2020-01-14 14:00:00 17.7 25 Sur 41 Sudoeste 0 1013.7 -1.3 34
2020-01-14 13:00:00 15.8 21 Sudeste 39 Sur 0 1014.3 -0.6 43
2020-01-14 12:00:00 16.8 22 Sur 30 Sur 0 1014.7 0.2 40
2020-01-14 11:00:00 13.4 20 Sur 26 Sur 0 1015 0.5 50
2020-01-14 10:00:00 12.8 16 Sur 24 Sur 0 1014.9 0.9 51
2020-01-14 09:00:00 11.8 18 Sur 22 Sur 0 1014.5 0.6 54
2020-01-14 08:00:00 11.2 15 Sur 18 Sur 0 1014.5 0.5 55
2020-01-14 07:00:00 11.7 15 Sudeste 24 Sur 0 1014 -0.5 52
2020-01-14 06:00:00 12.3 14 Sur 22 Sur 0 1013.9 -0.9 47
2020-01-14 05:00:00 12.2 10 Sur 30 Sudoeste 0 1014 -0.9 42
2020-01-14 04:00:00 12.1 18 Sudoeste 28 Sudoeste 0 1014.5 -0.9 43
2020-01-14 03:00:00 11.3 13 Sur 18 Sur 0 1014.8 -1.8 45
2020-01-14 02:00:00 11.4 15 Sur 33 Sudeste 0 1014.9 -1.5 43
2020-01-14 01:00:00 11.9 15 Sur 22 Sur 0 1015.4 -0.8 38
2020-01-14 00:00:00 11.1 15 Sur 22 Sur 0 1016.6 0.7 37
2020-01-13 23:00:00 10.5 9 Este 17 Sur 0 1016.4 0.3 45
2020-01-13 22:00:00 9.7 4 Sur 13 Sur 0 1016.2 0.1 44
2020-01-13 21:00:00 10.6 4 Noroeste 24 Sudoeste 0 1015.9 -0.5 40
2020-01-13 20:00:00 11 9 Sur 28 Sudeste 0 1016.1 -0.3 43
2020-01-13 19:00:00 13.5 19 Sudeste 30 Sudeste 0 1016.1 -0.7 35
2020-01-13 18:00:00 13 11 Sudeste 22 Sudeste 0 1016.4 -0.9 46
2020-01-13 17:00:00 15.2 6 Noroeste 13 Sur 0 1016.4 -1.7 42
2020-01-13 16:00:00 16 12 Sudeste 21 Sudeste 0 1016.8 -3.2 39
2020-01-13 15:00:00 15.3 7 Este 18 Sudeste 0 1017.3 -3.8 41
2020-01-13 14:00:00 13.9 15 Sudeste 22 Sudeste 0 1018.1 -3.2 50
2020-01-13 13:00:00 12.9 11 Sur 18 Sur 0 1020 -1.7 54
2020-01-13 12:00:00 10 13 Sur 17 Sudoeste 0 1021.1 -1.1 76
2020-01-13 11:00:00 7 3 Oeste 9 Oeste 0 1021.3 -1.3 96
2020-01-13 10:00:00 4.7 5 Sudoeste 11 Sudoeste 0 1021.7 -0.9 97
2020-01-13 09:00:00 3 8 Sur -- -- 0 1022.2 -1.3 97
2020-01-13 08:00:00 3 8 Sudoeste 11 Sur 0 1022.6 -1.9 97
2020-01-13 07:00:00 2.4 4 Sudoeste 9 Sudoeste 0 1022.6 -3.1 97
2020-01-13 06:00:00 2.5 6 Sudoeste 9 Sudoeste 0 1023.5 -2.7 96
2020-01-13 05:00:00 2.5 5 Sudoeste 9 Sudoeste 0 1024.5 -2.2 96
2020-01-13 04:00:00 2.3 9 Sur 9 Sur 0 1025.7 -1.9 95
2020-01-13 03:00:00 3 6 Sudoeste -- -- 0 1026.2 -2 95
2020-01-13 02:00:00 3.9 6 Sudoeste 8 Sudoeste 0 1026.7 -1.8 95
2020-01-13 01:00:00 3.7 7 Sur 11 Sur 0 1027.6 -1.4 95
2020-01-13 00:00:00 3.9 5 Sudoeste 9 Sur 0 1028.2 -1.1 94
2020-01-12 23:00:00 4.3 6 Sudoeste 9 Sur 0 1028.5 -1.2 92
2020-01-12 22:00:00 5.2 6 Sudoeste 8 Sur 0 1029 -0.5 92
2020-01-12 21:00:00 6.3 4 Sudoeste 17 Sudeste 0 1029.3 -0.2 90
2020-01-12 20:00:00 7.4 5 Sudoeste 11 Sur 0 1029.7 0.3 87
2020-01-12 19:00:00 8.8 9 Sur 13 Sudeste 0 1029.5 0 83
2020-01-12 18:00:00 10.8 2 Nordeste 9 Norte 0 1029.5 -0.1 78
2020-01-12 17:00:00 12.6 6 Norte 11 Norte 0 1029.4 -0.6 68
2020-01-12 16:00:00 13.8 10 Norte 17 Norte 0 1029.5 -1.5 63
2020-01-12 15:00:00 13.5 10 Noroeste 15 Norte 0 1029.6 -2.4 64
2020-01-12 14:00:00 13 5 Sudeste 11 Sudeste 0 1030 -2 63
2020-01-12 13:00:00 10.6 10 Sur 11 Sudeste 0 1031 -0.7 69
2020-01-12 12:00:00 8.9 8 Sudeste 13 Sudeste 0 1032 0.7 71
2020-01-12 11:00:00 6.8 10 Sudeste 15 Sur 0 1032 1 79
2020-01-12 10:00:00 4.3 7 Sur 17 Sur 0 1031.7 0.8 88
2020-01-12 09:00:00 3.2 12 Sur 15 Sur 0 1031.3 0.9 92
2020-01-12 08:00:00 3.3 8 Sur 15 Sur 0 1031 0.5 92
2020-01-12 07:00:00 3.3 11 Sur 15 Sur 0 1030.9 0.5 92
2020-01-12 06:00:00 3.8 10 Sur 17 Sur 0 1030.4 0.2 91
2020-01-12 05:00:00 3.7 12 Sur 15 Sur 0 1030.5 0.5 91
2020-01-12 04:00:00 3.8 12 Sur 17 Sur 0 1030.4 0.2 92
2020-01-12 03:00:00 4.2 13 Sur 15 Sur 0 1030.2 -0.2 92
2020-01-12 02:00:00 4.1 10 Sur 15 Sur 0 1030 -0.4 94
2020-01-12 01:00:00 3.9 10 Sur 13 Sur 0 1030.2 -0.3 94
2020-01-12 00:00:00 3.9 8 Sur 11 Sur 0 1030.4 -0.2 94
2020-01-11 23:00:00 4.2 7 Sur 9 Sur 0 1030.4 -0.4 94
2020-01-11 22:00:00 4.5 8 Sur 11 Sur 0 1030.5 -0.2 92
2020-01-11 21:00:00 5.8 4 Sur 13 Sudeste 0 1030.6 0.3 88
2020-01-11 20:00:00 6.8 7 Sudoeste 9 Sur 0 1030.8 0.9 89
2020-01-11 19:00:00 7.8 6 Sur 13 Nordeste 0 1030.7 0.6 83
2020-01-11 18:00:00 10.6 10 Nordeste 17 Nordeste 0 1030.3 -0.1 68
2020-01-11 17:00:00 11.5 10 Nordeste 15 Norte 0 1029.9 -1.4 66
2020-01-11 16:00:00 12.1 9 Norte 13 Norte 0 1030.1 -2.3 68
2020-01-11 15:00:00 11.7 9 Norte 11 Norte 0 1030.4 -3 67
2020-01-11 14:00:00 11.3 6 Norte 9 Norte 0 1031.3 -2.4 71
2020-01-11 13:00:00 10.8 4 Sudeste 13 Sudeste 0 1032.4 -1.1 69
2020-01-11 12:00:00 8.9 8 Sudeste 13 Sudeste 0 1033.4 0 78
2020-01-11 11:00:00 7.5 3 Sudeste 9 Sudeste 0 1033.7 0.1 85
2020-01-11 10:00:00 5.8 3 Sur 11 Sur 0 1033.5 0.1 95
2020-01-11 09:00:00 4.8 9 Sudeste 13 Sudeste 0 1033.4 0 97
2020-01-11 08:00:00 4.7 7 Sur 13 Sur 0 1033.6 0.2 97
2020-01-11 07:00:00 5.3 0 Calma 8 Sur 0 1033.4 -0.5 98
2020-01-11 06:00:00 5.1 5 Oeste 9 Sur 0 1033.4 -0.5 98
2020-01-11 05:00:00 4.7 7 Sur 9 Sudeste 0 1033.4 -0.4 98
2020-01-11 04:00:00 4.6 7 Sur 11 Sur 0 1033.9 0 98
2020-01-11 03:00:00 4.6 3 Sudoeste 13 Sudeste 0 1033.9 -0.1 98
2020-01-11 02:00:00 5.6 9 Sur 11 Sur 0 1033.8 0 98
2020-01-11 01:00:00 4.9 7 Sur 9 Sur 0 1033.9 0 98
2020-01-11 00:00:00 6.2 5 Sur 9 Sur 0 1034 0.4 98
2020-01-10 23:00:00 6.6 7 Sur 9 Sur 0 1033.8 0.5 97
2020-01-10 22:00:00 7.5 6 Sur -- -- 0 1033.9 1.7 96
2020-01-10 21:00:00 9.2 0 Calma 5 Sur 0 1033.6 1.6 95
2020-01-10 20:00:00 10 4 Sur 17 Nordeste 0 1033.3 1.9 95
2020-01-10 19:00:00 10.4 5 Este 15 Sudeste 0.1 1032.2 1.2 91
2020-01-10 18:00:00 10.5 5 Sur 15 Norte 0.2 1032 2 91
2020-01-10 17:00:00 11.3 12 Norte 24 Norte 0.3 1031.4 1.4 84
2020-01-10 16:00:00 11.1 9 Norte 26 Nordeste 1.4 1031 0.8 81
2020-01-10 15:00:00 13.3 17 Norte 28 Norte 0 1030 0.1 64
2020-01-10 14:00:00 12.9 13 Noroeste 28 Noroeste 0 1030 0.1 64
2020-01-10 13:00:00 11.8 7 Noroeste 30 Norte -- 1030.2 0.9 82
2020-01-10 12:00:00 12.9 15 Noroeste 26 Norte 0 1029.9 1.3 72
2020-01-10 11:00:00 11.3 5 Noroeste 24 Sudoeste 0 1029.9 1.7 81
2020-01-10 10:00:00 10.5 14 Oeste 35 Sudoeste 1.3 1029.3 1.6 78
2020-01-10 09:00:00 11 19 Sudoeste 28 Sudoeste 0 1028.6 1.4 82
2020-01-10 08:00:00 10 18 Sudoeste 28 Sudoeste 0.1 1028.2 1.6 83
2020-01-10 07:00:00 9.8 18 Sudoeste 28 Sudoeste 0 1027.7 1.1 84
2020-01-10 06:00:00 10.3 18 Sudoeste 33 Oeste 3.2 1027.2 0.5 82
2020-01-10 05:00:00 10.4 15 Sudoeste 30 Sudoeste 1 1026.6 0.4 79
2020-01-10 04:00:00 10.3 15 Sudoeste 26 Oeste 0.7 1026.6 0.7 84
2020-01-10 03:00:00 10.8 23 Sudoeste 42 Norte 3.2 1026.7 0.9 84
2020-01-10 02:00:00 12 27 Oeste 52 Sudoeste 0.1 1026.2 0.8 72
2020-01-10 01:00:00 11.9 19 Oeste 39 Noroeste 0.2 1025.9 0.9 75
2020-01-10 00:00:00 12.2 16 Sudoeste 42 Sudoeste 1.3 1025.8 1.6 75
2020-01-09 23:00:00 12.6 25 Oeste 42 Oeste 0 1025.4 1 72
2020-01-09 22:00:00 11.3 13 Sudoeste 22 Sudoeste 0 1025 0.6 87
2020-01-09 21:00:00 11.4 13 Sudoeste 24 Sudoeste 0.8 1024.2 0.2 90
2020-01-09 20:00:00 12.1 15 Sudoeste 28 Sudoeste 0.1 1024.4 5.2 83
2020-01-09 19:00:00 11.7 17 Sudoeste 58 Oeste 1.4 1024.4 6.1 89
2020-01-09 18:00:00 14.1 28 Oeste 80 Noroeste 0 1024 6 70
2020-01-09 17:00:00 17.2 22 Sudoeste 39 Sur 0 1019.2 0.1 46
2020-01-09 16:00:00 18.5 23 Sudoeste 50 Sudoeste 0 1018.3 -2.1 40
2020-01-09 15:00:00 19.2 27 Sudoeste 42 Sur 0 1018 -3.8 36
2020-01-09 14:00:00 19.3 27 Sudoeste 35 Sur 0 1019.1 -2.9 35
2020-01-09 13:00:00 19.4 19 Sudoeste 37 Sudoeste 0 1020.4 -1.7 38
2020-01-09 12:00:00 18.4 19 Sudoeste 28 Sudoeste 0 1021.8 -0.2 41
2020-01-09 11:00:00 16.8 19 Sudoeste 26 Sudoeste 0 1022 -0.4 47
2020-01-09 10:00:00 15.1 16 Sudoeste 24 Oeste 0 1022.1 -0.8 51
2020-01-09 09:00:00 11.4 12 Sur 17 Sur 0 1022 -1.2 70
2020-01-09 08:00:00 11.6 13 Sur 21 Sudoeste 0 1022.4 -0.7 71
2020-01-09 07:00:00 11.4 12 Sur 17 Sur 0 1022.9 -0.9 73
2020-01-09 06:00:00 11 7 Sur 18 Sur 0 1023.2 -1.4 74
2020-01-09 05:00:00 8.3 10 Sur 15 Sur 0 1023.1 -2.1 96
2020-01-09 04:00:00 5.8 10 Sur 11 Sudoeste 0 1023.8 -2 97
2020-01-09 03:00:00 6.3 6 Sur 11 Sudoeste 0 1024.6 -1.5 97
2020-01-09 02:00:00 6.1 6 Sudoeste 9 Sur 0 1025.2 -1.2 97
2020-01-09 01:00:00 6.8 7 Sudoeste 9 Sudoeste 0 1025.8 -1.1 97
2020-01-09 00:00:00 6.3 3 Oeste 9 Sudoeste 0 1026.1 -1.2 96
2020-01-08 23:00:00 6.5 6 Sur 9 Sudoeste 0 1026.4 -1.3 95
2020-01-08 22:00:00 7.4 7 Sur 9 Sur 0 1026.9 -1.3 95
2020-01-08 21:00:00 7.8 6 Sur 9 Sur 0 1027.3 -0.7 94
2020-01-08 20:00:00 9.1 4 Sudoeste 5 Sudoeste 0 1027.7 -0.3 92
2020-01-08 19:00:00 10.8 3 Sudoeste 8 Sudoeste 0 1028.2 0 91
2020-01-08 18:00:00 12.2 0 Calma 9 Norte 0 1028 -0.5 87
2020-01-08 17:00:00 13.8 9 Norte 11 Norte 0 1028 -1 82
2020-01-08 16:00:00 13.5 9 Nordeste 13 Nordeste 0 1028.2 -1.4 84
2020-01-08 15:00:00 13.5 9 Nordeste 15 Nordeste 0 1028.5 -2 81
2020-01-08 14:00:00 13.9 11 Norte 15 Norte 0 1029 -2 78
2020-01-08 13:00:00 14.7 8 Norte 11 Norte 0 1029.6 -1.6 67
2020-01-08 12:00:00 12 0 Calma 9 Sur 0 1030.5 -0.2 77
2020-01-08 11:00:00 9.6 5 Sudeste 11 Sudeste 0 1031 0.7 84
2020-01-08 10:00:00 7.4 7 Sur 15 Sur 0 1031.2 1.3 93
2020-01-08 09:00:00 6.3 5 Oeste 11 Sur 0 1030.7 1 95
2020-01-08 08:00:00 6.7 9 Sudeste 17 Sur 0 1030.3 0.3 94
2020-01-08 07:00:00 7 10 Sur 11 Sur 0 1029.9 -0.3 94
2020-01-08 06:00:00 7.1 3 Sur 11 Sur 0 1029.7 -0.6 94
2020-01-08 05:00:00 7.3 8 Sur 13 Sur 0 1030 0 95
2020-01-08 04:00:00 7.3 6 Sudoeste 11 Sur 0 1030.2 -0.4 95
2020-01-08 03:00:00 7.7 8 Sudoeste 11 Sudoeste 0 1030.3 -0.4 93
2020-01-08 02:00:00 8.4 3 Sur 13 Sur 0 1030 -0.8 92
2020-01-08 01:00:00 8.9 10 Sur 11 Sudoeste 0 1030.6 -0.5 91
2020-01-08 00:00:00 8.5 6 Sudoeste 9 Sudoeste 0 1030.7 -0.3 94
2020-01-07 23:00:00 7.7 6 Sudoeste 9 Sur 0 1030.8 0 94
2020-01-07 22:00:00 7.9 6 Sur 9 Sur 0 1031.1 0.3 93
2020-01-07 21:00:00 8.4 5 Sur 8 Sur 0 1031 0.2 90
2020-01-07 20:00:00 9.5 3 Sur 8 Sur 0 1030.8 0.6 90
2020-01-07 19:00:00 11.2 0 Calma 17 Nordeste 0 1030.8 0.7 87
2020-01-07 18:00:00 12.2 13 Nordeste 18 Nordeste 0 1030.8 0.6 87
2020-01-07 17:00:00 13.3 10 Nordeste 15 Nordeste 0 1030.2 -0.3 79
2020-01-07 16:00:00 13.8 13 Nordeste 17 Nordeste 0 1030.1 -1.4 73
2020-01-07 15:00:00 14 9 Norte 15 Norte 0 1030.2 -2.2 71
2020-01-07 14:00:00 14 10 Norte 17 Nordeste 0 1030.5 -2.5 67
2020-01-07 13:00:00 13.6 3 Nordeste 8 Nordeste 0 1031.5 -1.4 66
2020-01-07 12:00:00 10.8 5 Sur 9 Sur 0 1032.4 0.3 78
2020-01-07 11:00:00 8.6 5 Sur 9 Sur 0 1033 1.2 85
2020-01-07 10:00:00 7.5 0 Calma 8 Sudoeste 0 1032.9 1 91
2020-01-07 09:00:00 6.7 4 Sudoeste 8 Sur 0 1032.1 0.3 91
2020-01-07 08:00:00 7.3 6 Sudoeste 11 Sur 0 1031.8 -0.2 89
2020-01-07 07:00:00 8 7 Sur 11 Sur 0 1031.9 0 91
2020-01-07 06:00:00 7.8 6 Sur 11 Sur 0 1031.8 0.3 91
2020-01-07 05:00:00 7.2 7 Sur 11 Sur 0 1032 0.3 92
2020-01-07 04:00:00 7.5 8 Sur 9 Sur 0 1031.9 -0.5 92
2020-01-07 03:00:00 7.8 3 Sur 13 Sur 0 1031.5 -0.9 89
2020-01-07 02:00:00 9.1 14 Sur 18 Sur 0 1031.7 -0.2 86
2020-01-07 01:00:00 8.6 10 Sur 17 Sur 0 1032.4 0.8 90
2020-01-07 00:00:00 8.6 12 Sur 15 Sur 0 1032.4 0.7 90
2020-01-06 23:00:00 9.3 10 Sudoeste -- -- 0 1031.9 0.3 86
2020-01-06 22:00:00 10.8 10 Sudoeste 17 Sudoeste 0 1031.6 1 82
2020-01-06 21:00:00 10.8 12 Sudoeste 17 Sudoeste 0 1031.7 2.1 83
2020-01-06 20:00:00 10.7 7 Sur 11 Oeste 0 1031.6 2.4 84
2020-01-06 19:00:00 10.7 9 Oeste 15 Sur 0 1030.6 2.4 84
2020-01-06 18:00:00 11.9 10 Sudoeste 28 Sudoeste 0 1029.6 2.1 79
2020-01-06 17:00:00 12.6 12 Oeste 21 Oeste 0 1029.2 1.7 76
2020-01-06 16:00:00 13.1 14 Oeste 24 Oeste 0 1028.2 0.3 72
2020-01-06 15:00:00 13.4 16 Oeste 26 Oeste 0 1027.5 -1.4 67
2020-01-06 14:00:00 13.8 14 Oeste 21 Oeste 0 1027.5 -1.5 56
2020-01-06 13:00:00 12.6 7 Sur 9 Sur 0 1027.9 -0.3 56
2020-01-06 12:00:00 10 0 Calma 13 Sur 0 1028.9 1.1 71
2020-01-06 11:00:00 6.1 0 Calma 8 Sur 0 1029 2.3 97
2020-01-06 10:00:00 3.4 7 Sur 9 Sur 0 1028.2 2 99